createdAt,value
2018-01-23T00:02:07.536Z,5.70
2018-01-23T00:04:34.600Z,5.70
2018-01-23T00:07:15.916Z,5.70
2018-01-23T00:09:42.244Z,5.70
2018-01-23T00:12:08.652Z,5.70
2018-01-23T00:14:34.932Z,5.70
2018-01-23T00:17:01.345Z,5.70
2018-01-23T00:19:27.635Z,5.70
2018-01-23T00:21:54.000Z,5.80
2018-01-23T00:24:20.260Z,5.80
2018-01-23T00:26:47.435Z,5.70
2018-01-23T00:29:13.724Z,5.70
2018-01-23T00:31:40.083Z,5.80
2018-01-23T00:34:07.137Z,5.80
2018-01-23T00:36:34.207Z,5.80
2018-01-23T00:39:00.539Z,5.80
2018-01-23T00:41:26.921Z,5.80
2018-01-23T00:43:53.223Z,5.80
2018-01-23T00:46:19.603Z,5.70
2018-01-23T00:48:46.748Z,5.80
2018-01-23T00:51:13.819Z,5.80
2018-01-23T00:53:40.152Z,5.80
2018-01-23T00:56:06.804Z,5.70
2018-01-23T00:58:33.142Z,5.80
2018-01-23T01:01:00.222Z,5.80
2018-01-23T01:03:26.547Z,5.80
2018-01-23T01:05:52.919Z,5.80
2018-01-23T01:08:19.249Z,5.80
2018-01-23T01:10:45.604Z,5.80
2018-01-23T01:13:11.924Z,5.80
2018-01-23T01:15:38.308Z,5.80
2018-01-23T01:18:04.641Z,5.80
2018-01-23T01:20:30.996Z,5.80
2018-01-23T01:22:58.028Z,5.80
2018-01-23T01:25:24.391Z,5.80
2018-01-23T01:27:50.727Z,5.70
2018-01-23T01:30:17.074Z,5.80
2018-01-23T01:32:43.604Z,5.80
2018-01-23T01:35:10.071Z,5.70
2018-01-23T01:37:36.428Z,5.70
2018-01-23T01:40:03.707Z,5.60
2018-01-23T01:42:30.033Z,5.60
2018-01-23T01:44:56.360Z,5.60
2018-01-23T01:47:22.875Z,5.70
2018-01-23T01:49:49.881Z,5.70
2018-01-23T01:52:16.236Z,5.70
2018-01-23T01:54:42.552Z,5.70
2018-01-23T01:57:09.640Z,5.70
2018-01-23T01:59:36.668Z,5.70
2018-01-23T02:02:03.052Z,5.70
2018-01-23T02:04:29.384Z,5.70
2018-01-23T02:06:55.768Z,5.70
2018-01-23T02:09:22.093Z,5.70
2018-01-23T02:11:48.388Z,5.70
2018-01-23T02:14:14.755Z,5.80
2018-01-23T02:16:41.127Z,5.80
2018-01-23T02:19:07.444Z,5.70
2018-01-23T02:21:33.737Z,5.80
2018-01-23T02:24:00.045Z,5.80
2018-01-23T02:26:26.464Z,5.80
2018-01-23T02:28:52.875Z,5.70
2018-01-23T02:31:19.225Z,5.80
2018-01-23T02:33:45.480Z,5.80
2018-01-23T02:36:12.604Z,5.80
2018-01-23T02:38:39.132Z,5.80
2018-01-23T02:41:05.566Z,5.80
2018-01-23T02:43:31.836Z,5.80
2018-01-23T02:45:58.228Z,5.80
2018-01-23T02:48:24.676Z,5.70
2018-01-23T02:50:51.103Z,5.80
2018-01-23T02:53:17.368Z,5.80
2018-01-23T02:55:43.888Z,5.80
2018-01-23T02:58:10.287Z,5.80
2018-01-23T03:00:36.724Z,5.80
2018-01-23T03:03:03.145Z,5.80
2018-01-23T03:05:29.499Z,5.70
2018-01-23T03:07:55.926Z,5.70
2018-01-23T03:10:22.261Z,5.70
2018-01-23T03:12:48.676Z,5.80
2018-01-23T03:15:14.984Z,5.70
2018-01-23T03:17:42.141Z,5.70
2018-01-23T03:20:09.264Z,5.70
2018-01-23T03:22:35.592Z,5.70
2018-01-23T03:25:02.193Z,5.70
2018-01-23T03:27:28.487Z,5.70
2018-01-23T03:29:55.572Z,5.80
2018-01-23T03:32:21.892Z,5.80
2018-01-23T03:34:48.280Z,5.80
2018-01-23T03:37:14.611Z,5.70
2018-01-23T03:39:40.931Z,5.70
2018-01-23T03:42:07.275Z,5.70
2018-01-23T03:44:33.639Z,5.70
2018-01-23T03:46:59.958Z,5.80
2018-01-23T03:49:26.352Z,5.80
2018-01-23T03:51:52.643Z,5.70
2018-01-23T03:54:19.738Z,5.70
2018-01-23T03:56:45.987Z,5.70
2018-01-23T03:59:13.070Z,5.70
2018-01-23T04:01:39.347Z,5.70
2018-01-23T04:04:05.715Z,5.70
2018-01-23T04:06:32.052Z,5.70
2018-01-23T04:08:58.408Z,5.70
2018-01-23T04:11:24.723Z,5.60
2018-01-23T04:13:51.824Z,5.70
2018-01-23T04:16:18.144Z,5.70
2018-01-23T04:18:44.424Z,5.70
2018-01-23T04:21:10.727Z,5.70
2018-01-23T04:23:37.796Z,5.70
2018-01-23T04:26:04.123Z,5.70
2018-01-23T04:28:30.420Z,5.70
2018-01-23T04:30:56.735Z,5.70
2018-01-23T04:33:23.092Z,5.70
2018-01-23T04:35:50.148Z,5.70
2018-01-23T04:38:17.220Z,5.70
2018-01-23T04:40:43.527Z,5.70
2018-01-23T04:43:09.899Z,5.70
2018-01-23T04:45:36.228Z,5.60
2018-01-23T04:48:02.600Z,5.70
2018-01-23T04:50:28.960Z,5.70
2018-01-23T04:52:55.287Z,5.70
2018-01-23T04:55:21.666Z,5.70
2018-01-23T04:57:47.979Z,5.70
2018-01-23T05:00:14.312Z,5.70
2018-01-23T05:02:40.656Z,5.70
2018-01-23T05:05:06.983Z,5.60
2018-01-23T05:07:33.404Z,5.70
2018-01-23T05:10:00.040Z,5.70
2018-01-23T05:12:26.395Z,5.70
2018-01-23T05:14:52.672Z,5.70
2018-01-23T05:17:19.043Z,5.70
2018-01-23T05:19:45.357Z,5.70
2018-01-23T05:22:11.721Z,5.70
2018-01-23T05:24:38.075Z,5.70
2018-01-23T05:27:05.137Z,5.70
2018-01-23T05:29:32.159Z,5.80
2018-01-23T05:31:58.550Z,5.80
2018-01-23T05:34:24.888Z,5.80
2018-01-23T05:36:51.148Z,5.80
2018-01-23T05:39:17.473Z,5.80
2018-01-23T05:41:43.979Z,5.80
2018-01-23T05:44:10.264Z,5.80
2018-01-23T05:46:37.272Z,5.80
2018-01-23T05:49:03.567Z,5.80
2018-01-23T05:51:29.839Z,5.80
2018-01-23T05:53:56.136Z,5.80
2018-01-23T05:56:22.429Z,5.90
2018-01-23T05:58:49.440Z,5.80
2018-01-23T06:01:15.718Z,5.90
2018-01-23T06:03:42.015Z,5.90
2018-01-23T06:06:08.285Z,5.90
2018-01-23T06:08:34.590Z,5.90
2018-01-23T06:11:00.957Z,5.80
2018-01-23T06:13:27.243Z,5.80
2018-01-23T06:15:53.653Z,5.80
2018-01-23T06:18:20.058Z,5.80
2018-01-23T06:20:46.359Z,5.80
2018-01-23T06:23:13.391Z,5.90
2018-01-23T06:25:40.459Z,5.90
2018-01-23T06:28:06.839Z,5.90
2018-01-23T06:30:33.899Z,5.90
2018-01-23T06:33:00.267Z,5.90
2018-01-23T06:35:26.581Z,5.90
2018-01-23T06:37:53.669Z,6.00
2018-01-23T06:40:20.788Z,6.00
2018-01-23T06:42:47.896Z,6.00
2018-01-23T06:45:14.204Z,6.00
2018-01-23T06:47:40.597Z,6.00
2018-01-23T06:50:07.696Z,6.00
2018-01-23T06:52:34.080Z,6.00
2018-01-23T06:55:01.108Z,6.00
2018-01-23T06:57:27.484Z,6.00
2018-01-23T06:59:53.744Z,5.90
2018-01-23T07:02:20.076Z,5.90
2018-01-23T07:04:46.365Z,6.00
2018-01-23T07:07:12.761Z,5.90
2018-01-23T07:09:39.424Z,6.00
2018-01-23T07:12:05.755Z,6.00
2018-01-23T07:14:32.083Z,6.00
2018-01-23T07:16:59.164Z,6.00
2018-01-23T07:19:25.491Z,5.90
2018-01-23T07:21:51.856Z,5.90
2018-01-23T07:24:18.208Z,5.90
2018-01-23T07:26:44.547Z,5.90
2018-01-23T07:29:11.586Z,6.00
2018-01-23T07:31:38.676Z,6.00
2018-01-23T07:34:04.982Z,6.00
2018-01-23T07:36:31.361Z,6.00
2018-01-23T07:38:57.663Z,6.00
2018-01-23T07:41:24.039Z,6.10
2018-01-23T07:43:50.364Z,6.10
2018-01-23T07:46:16.731Z,6.10
2018-01-23T07:48:43.767Z,6.20
2018-01-23T07:51:10.847Z,6.10
2018-01-23T07:53:37.196Z,6.10
2018-01-23T07:56:03.551Z,6.10
2018-01-23T07:58:29.877Z,6.10
2018-01-23T08:00:56.900Z,6.10
2018-01-23T08:03:23.284Z,6.10
2018-01-23T08:05:50.367Z,6.10
2018-01-23T08:08:16.680Z,6.00
2018-01-23T08:10:43.683Z,6.10
2018-01-23T08:13:10.016Z,6.10
2018-01-23T08:15:36.332Z,6.10
2018-01-23T08:18:02.708Z,6.20
2018-01-23T08:20:29.744Z,6.20
2018-01-23T08:22:56.107Z,6.20
2018-01-23T08:25:22.468Z,6.30
2018-01-23T08:27:48.784Z,6.20
2018-01-23T08:30:15.115Z,6.30
2018-01-23T08:32:41.496Z,6.30
2018-01-23T08:35:07.865Z,6.40
2018-01-23T08:37:34.899Z,6.50
2018-01-23T08:40:01.932Z,6.40
2018-01-23T08:42:28.962Z,6.50
2018-01-23T08:44:55.324Z,6.50
2018-01-23T08:47:22.429Z,6.50
2018-01-23T08:49:48.748Z,6.50
2018-01-23T08:52:15.116Z,6.60
2018-01-23T08:54:41.939Z,6.60
2018-01-23T08:57:08.324Z,6.70
2018-01-23T08:59:34.643Z,6.70
2018-01-23T09:02:01.004Z,6.60
2018-01-23T09:04:27.333Z,6.60
2018-01-23T09:06:53.705Z,6.60
2018-01-23T09:09:20.012Z,6.70
2018-01-23T09:11:46.384Z,6.70
2018-01-23T09:14:13.432Z,6.70
2018-01-23T09:16:40.443Z,6.70
2018-01-23T09:19:07.860Z,6.70
2018-01-23T09:21:34.940Z,6.80
2018-01-23T09:24:03.092Z,6.80
2018-01-23T09:26:29.472Z,6.80
2018-01-23T09:28:55.736Z,6.80
2018-01-23T09:31:22.088Z,6.90
2018-01-23T09:33:48.376Z,6.80
2018-01-23T09:36:15.466Z,6.80
2018-01-23T09:38:41.776Z,6.80
2018-01-23T09:41:08.072Z,6.90
2018-01-23T09:43:34.396Z,6.80
2018-01-23T09:46:00.740Z,6.90
2018-01-23T09:48:27.893Z,7.00
2018-01-23T09:50:54.996Z,6.90
2018-01-23T09:53:21.277Z,6.90
2018-01-23T09:55:48.376Z,6.90
2018-01-23T09:58:14.698Z,6.90
2018-01-23T10:00:41.109Z,6.90
2018-01-23T10:03:07.384Z,7.00
2018-01-23T10:05:33.676Z,7.00
2018-01-23T10:07:59.971Z,7.10
2018-01-23T10:10:27.055Z,7.20
2018-01-23T10:12:53.375Z,7.10
2018-01-23T10:15:19.767Z,7.30
2018-01-23T10:17:46.027Z,7.20
2018-01-23T10:20:12.348Z,7.20
2018-01-23T10:22:39.631Z,7.30
2018-01-23T10:25:05.975Z,7.30
2018-01-23T10:27:32.260Z,7.30
2018-01-23T10:29:59.353Z,7.60
2018-01-23T10:32:25.672Z,7.60
2018-01-23T10:34:52.048Z,7.60
2018-01-23T10:37:18.355Z,7.60
2018-01-23T10:39:44.724Z,7.60
2018-01-23T10:42:11.757Z,7.70
2018-01-23T10:44:38.128Z,7.70
2018-01-23T10:47:04.464Z,7.70
2018-01-23T10:49:30.856Z,7.80
2018-01-23T10:51:57.153Z,7.80
2018-01-23T10:54:23.463Z,7.90
2018-01-23T10:56:49.844Z,7.90
2018-01-23T10:59:16.224Z,7.90
2018-01-23T11:01:42.543Z,7.90
2018-01-23T11:04:08.913Z,7.90
2018-01-23T11:06:35.224Z,7.90
2018-01-23T11:09:01.597Z,8.10
2018-01-23T11:11:27.916Z,8.20
2018-01-23T11:13:54.992Z,8.30
2018-01-23T11:16:22.073Z,8.20
2018-01-23T11:18:48.384Z,8.20
2018-01-23T11:21:15.468Z,8.30
2018-01-23T11:23:41.820Z,8.20
2018-01-23T11:26:08.129Z,8.30
2018-01-23T11:28:34.497Z,8.30
2018-01-23T11:31:00.759Z,8.30
2018-01-23T11:33:27.102Z,8.20
2018-01-23T11:35:53.439Z,8.30
2018-01-23T11:38:19.767Z,8.20
2018-01-23T11:40:46.144Z,8.20
2018-01-23T11:43:12.884Z,8.30
2018-01-23T11:45:39.250Z,8.30
2018-01-23T11:48:06.375Z,8.50
2018-01-23T11:50:34.212Z,8.50
2018-01-23T11:53:00.480Z,8.50
2018-01-23T11:55:26.861Z,8.60
2018-01-23T11:57:53.167Z,8.60
2018-01-23T12:00:19.564Z,8.70
2018-01-23T12:02:46.604Z,8.60
2018-01-23T12:05:12.968Z,8.70
2018-01-23T12:07:39.963Z,8.70
2018-01-23T12:10:07.060Z,8.80
2018-01-23T12:12:34.123Z,8.80
2018-01-23T12:15:00.507Z,8.80
2018-01-23T12:17:26.796Z,8.80
2018-01-23T12:19:53.471Z,8.80
2018-01-23T12:22:19.808Z,8.70
2018-01-23T12:24:46.155Z,8.80
2018-01-23T12:27:12.483Z,8.80
2018-01-23T12:29:38.782Z,8.80
2018-01-23T12:32:06.736Z,8.90
2018-01-23T12:34:33.060Z,9.00
2018-01-23T12:36:59.940Z,9.10
2018-01-23T12:39:26.224Z,9.20
2018-01-23T12:41:52.913Z,9.30
2018-01-23T12:44:19.276Z,9.40
2018-01-23T12:46:46.348Z,9.70
2018-01-23T12:49:12.924Z,9.70
2018-01-23T12:51:39.220Z,9.70
2018-01-23T12:54:06.389Z,10.00
2018-01-23T12:56:32.740Z,9.90
2018-01-23T12:58:59.076Z,9.80
2018-01-23T13:01:25.431Z,9.70
2018-01-23T13:03:52.476Z,9.50
2018-01-23T13:06:19.579Z,9.40
2018-01-23T13:08:45.887Z,9.30
2018-01-23T13:11:12.248Z,9.20
2018-01-23T13:13:38.893Z,9.00
2018-01-23T13:16:05.528Z,8.90
2018-01-23T13:18:31.865Z,8.90
2018-01-23T13:20:58.240Z,8.80
2018-01-23T13:23:24.575Z,8.90
2018-01-23T13:25:51.260Z,8.90
2018-01-23T13:28:18.508Z,9.00
2018-01-23T13:30:44.880Z,9.00
2018-01-23T13:35:47.290Z,9.00
2018-01-23T13:38:14.182Z,9.00
2018-01-23T13:40:40.590Z,9.00
2018-01-23T13:43:06.882Z,9.00
2018-01-23T13:45:33.987Z,9.00
2018-01-23T13:48:00.316Z,8.90
2018-01-23T13:52:57.488Z,8.70
2018-01-23T13:55:24.425Z,8.70
2018-01-23T13:57:51.648Z,8.70
2018-01-23T14:00:17.968Z,8.70
2018-01-23T14:05:15.186Z,8.70
2018-01-23T14:07:41.508Z,8.60
2018-01-23T14:10:07.880Z,8.60
2018-01-23T14:12:34.904Z,8.60
2018-01-23T14:15:02.040Z,8.60
2018-01-23T14:17:28.415Z,8.60
2018-01-23T14:19:55.113Z,8.60
2018-01-23T14:22:23.285Z,8.60
2018-01-23T14:24:51.388Z,8.60
2018-01-23T14:27:20.748Z,8.60
2018-01-23T14:29:47.139Z,8.60
2018-01-23T14:32:13.452Z,8.60
2018-01-23T14:34:40.512Z,8.50
2018-01-23T14:37:06.865Z,8.50
2018-01-23T14:39:33.219Z,8.50
2018-01-23T14:41:59.583Z,8.50
2018-01-23T14:44:25.884Z,8.50
2018-01-23T14:46:52.271Z,8.40
2018-01-23T14:49:18.640Z,8.40
2018-01-23T14:51:45.060Z,8.40
2018-01-23T14:54:11.390Z,8.30
2018-01-23T14:56:37.775Z,8.40
2018-01-23T14:59:04.928Z,8.30
2018-01-23T15:01:31.956Z,8.30
2018-01-23T15:03:58.320Z,8.20
2018-01-23T15:06:24.635Z,8.20
2018-01-23T15:08:51.691Z,8.10
2018-01-23T15:11:19.060Z,8.10
2018-01-23T15:13:45.412Z,8.10
2018-01-23T15:16:11.767Z,8.00
2018-01-23T15:18:41.671Z,8.00
2018-01-23T15:21:08.041Z,8.00
2018-01-23T15:23:35.114Z,8.00
2018-01-23T15:26:01.736Z,8.00
2018-01-23T15:28:28.825Z,8.00
2018-01-23T15:30:55.920Z,8.00
2018-01-23T15:33:23.023Z,7.90
2018-01-23T15:35:49.392Z,7.80
2018-01-23T15:38:15.719Z,7.80
2018-01-23T15:40:42.104Z,7.80
2018-01-23T15:43:08.368Z,7.80
2018-01-23T15:45:35.501Z,7.90
2018-01-23T15:48:05.588Z,7.80
2018-01-23T15:50:31.859Z,7.70
2018-01-23T15:52:58.223Z,7.70
2018-01-23T15:55:26.480Z,7.70
2018-01-23T15:57:52.832Z,7.70
2018-01-23T16:00:20.169Z,7.60
2018-01-23T16:02:47.062Z,7.60
2018-01-23T16:05:13.428Z,7.60
2018-01-23T16:07:39.980Z,7.60
2018-01-23T16:10:07.059Z,7.60
2018-01-23T16:12:34.093Z,7.60
2018-01-23T16:15:02.127Z,7.60
2018-01-23T16:17:30.007Z,7.60
2018-01-23T16:19:56.318Z,7.50
2018-01-23T16:22:22.643Z,7.50
2018-01-23T16:24:50.757Z,7.50
2018-01-23T16:27:17.084Z,7.50
2018-01-23T16:29:43.713Z,7.40
2018-01-23T16:32:14.372Z,7.40
2018-01-23T16:34:41.700Z,7.30
2018-01-23T16:37:09.777Z,7.30
2018-01-23T16:39:36.188Z,7.30
2018-01-23T16:42:03.460Z,7.40
2018-01-23T16:44:31.521Z,7.40
2018-01-23T16:46:59.644Z,7.40
2018-01-23T16:49:25.959Z,7.40
2018-01-23T16:51:53.012Z,7.40
2018-01-23T16:54:20.116Z,7.30
2018-01-23T16:56:48.916Z,7.40
2018-01-23T16:59:15.877Z,7.40
2018-01-23T17:01:43.033Z,7.30
2018-01-23T17:04:10.068Z,7.30
2018-01-23T17:06:37.360Z,7.30
2018-01-23T17:09:04.112Z,7.40
2018-01-23T17:11:30.760Z,7.40
2018-01-23T17:13:57.076Z,7.40
2018-01-23T17:16:23.448Z,7.40
2018-01-23T17:18:50.741Z,7.40
2018-01-23T17:21:17.075Z,7.40
2018-01-23T17:23:43.388Z,7.40
2018-01-23T17:26:10.405Z,7.50
2018-01-23T17:28:36.779Z,7.50
2018-01-23T17:31:03.155Z,7.50
2018-01-23T17:33:29.757Z,7.40
2018-01-23T17:35:56.148Z,7.50
2018-01-23T17:38:22.459Z,7.50
2018-01-23T17:40:48.766Z,7.50
2018-01-23T17:43:15.062Z,7.60
2018-01-23T17:45:42.331Z,7.60
2018-01-23T17:48:08.660Z,7.50
2018-01-23T17:50:35.033Z,7.50
2018-01-23T17:53:01.360Z,7.40
2018-01-23T17:55:27.736Z,7.30
2018-01-23T17:57:54.344Z,7.20
2018-01-23T18:00:20.983Z,7.20
2018-01-23T18:02:49.255Z,7.00
2018-01-23T18:05:15.543Z,7.00
2018-01-23T18:07:41.907Z,7.00
2018-01-23T18:10:08.270Z,7.00
2018-01-23T18:12:34.600Z,7.00
2018-01-23T18:15:00.920Z,7.00
2018-01-23T18:17:30.920Z,6.90
2018-01-23T18:19:58.076Z,6.90
2018-01-23T18:22:24.377Z,6.90
2018-01-23T18:24:50.692Z,6.80
2018-01-23T18:27:17.068Z,6.90
2018-01-23T18:29:43.328Z,6.90
2018-01-23T18:32:10.652Z,6.80
2018-01-23T18:34:36.992Z,6.80
2018-01-23T18:37:03.385Z,6.80
2018-01-23T18:39:29.692Z,6.80
2018-01-23T18:41:56.080Z,6.80
2018-01-23T18:44:22.371Z,6.70
2018-01-23T18:46:48.747Z,6.60
2018-01-23T18:49:15.104Z,6.50
2018-01-23T18:51:42.891Z,6.40
2018-01-23T18:54:09.183Z,6.40
2018-01-23T18:56:36.280Z,6.30
2018-01-23T18:59:02.552Z,6.30
2018-01-23T19:01:29.276Z,6.30
2018-01-23T19:03:55.623Z,6.20
2018-01-23T19:06:21.956Z,6.20
2018-01-23T19:08:50.220Z,6.20
2018-01-23T19:11:16.575Z,6.20
2018-01-23T19:13:43.668Z,6.20
2018-01-23T19:16:10.648Z,6.10
2018-01-23T19:18:36.948Z,6.10
2018-01-23T19:21:03.307Z,6.10
2018-01-23T19:23:29.675Z,6.10
2018-01-23T19:25:56.703Z,6.10
2018-01-23T19:28:23.108Z,6.00
2018-01-23T19:30:49.780Z,6.00
2018-01-23T19:33:17.716Z,6.10
2018-01-23T19:35:45.076Z,6.00
2018-01-23T19:38:12.346Z,6.10
2018-01-23T19:40:38.672Z,6.10
2018-01-23T19:43:05.039Z,6.10
2018-01-23T19:45:32.656Z,6.10
2018-01-23T19:47:59.767Z,6.10
2018-01-23T19:50:26.184Z,6.10
2018-01-23T19:52:52.584Z,6.20
2018-01-23T19:55:18.884Z,6.10
2018-01-23T19:57:45.253Z,6.20
2018-01-23T20:00:14.156Z,6.10
2018-01-23T20:02:40.495Z,6.10
2018-01-23T20:05:06.825Z,6.20
2018-01-23T20:07:33.933Z,6.20
2018-01-23T20:10:00.344Z,6.20
2018-01-23T20:12:26.708Z,6.20
2018-01-23T20:14:53.042Z,6.20
2018-01-23T20:17:19.399Z,6.30
2018-01-23T20:19:46.419Z,6.30
2018-01-23T20:22:12.791Z,6.30
2018-01-23T20:24:39.051Z,6.30
2018-01-23T20:27:05.855Z,6.30
2018-01-23T20:29:33.492Z,6.30
2018-01-23T20:32:00.640Z,6.40
2018-01-23T20:34:28.011Z,6.40
2018-01-23T20:36:55.095Z,6.50
2018-01-23T20:39:21.542Z,6.40
2018-01-23T20:41:47.871Z,6.50
2018-01-23T20:44:14.180Z,6.50
2018-01-23T20:46:40.523Z,6.50
2018-01-23T20:49:06.896Z,6.50
2018-01-23T20:51:33.236Z,6.60
2018-01-23T20:54:00.589Z,6.60
2018-01-23T20:56:27.648Z,6.60
2018-01-23T20:58:54.743Z,6.60
2018-01-23T21:01:21.051Z,6.60
2018-01-23T21:03:51.313Z,6.60
2018-01-23T21:06:18.356Z,6.70
2018-01-23T21:08:44.752Z,6.70
2018-01-23T21:11:11.073Z,6.70
2018-01-23T21:13:37.412Z,6.80
2018-01-23T21:16:03.720Z,6.80
2018-01-23T21:18:30.828Z,6.70
2018-01-23T21:20:57.139Z,6.70
2018-01-23T21:23:23.796Z,6.80
2018-01-23T21:25:51.262Z,6.80
2018-01-23T21:28:18.351Z,6.80
2018-01-23T21:30:44.696Z,6.80
2018-01-23T21:33:11.040Z,6.80
2018-01-23T21:38:31.460Z,6.80
2018-01-23T21:40:58.835Z,6.80
2018-01-23T21:43:25.139Z,6.80
2018-01-23T21:45:51.980Z,6.80
2018-01-23T21:48:18.268Z,6.80
2018-01-23T21:50:46.420Z,6.80
2018-01-23T21:53:12.915Z,6.80
2018-01-23T21:55:39.259Z,6.80
2018-01-23T21:58:05.517Z,6.80
2018-01-23T22:00:33.934Z,6.80
2018-01-23T22:03:00.255Z,6.70
2018-01-23T22:05:26.792Z,6.80
2018-01-23T22:07:53.306Z,6.70
2018-01-23T22:10:20.548Z,6.80
2018-01-23T22:12:48.156Z,6.80
2018-01-23T22:15:14.929Z,6.80
2018-01-23T22:17:41.273Z,6.80
2018-01-23T22:20:07.536Z,6.90
2018-01-23T22:22:34.287Z,6.90
2018-01-23T22:25:00.672Z,6.90
2018-01-23T22:27:26.949Z,6.90
2018-01-23T22:29:53.961Z,6.90
2018-01-23T22:34:51.844Z,7.00
2018-01-23T22:37:18.367Z,7.00
2018-01-23T22:39:47.509Z,7.00
2018-01-23T22:42:13.836Z,7.10
2018-01-23T22:44:42.423Z,7.10
2018-01-23T22:47:08.789Z,7.20
2018-01-23T22:49:35.156Z,7.30
2018-01-23T22:52:01.925Z,7.30
2018-01-23T22:54:28.209Z,7.30
2018-01-23T22:56:54.560Z,7.40
2018-01-23T22:59:21.796Z,7.40
2018-01-23T23:04:18.931Z,7.40
2018-01-23T23:06:45.572Z,7.50
2018-01-23T23:09:11.933Z,7.50
2018-01-23T23:11:38.495Z,7.50
2018-01-23T23:14:05.661Z,7.60
2018-01-23T23:16:32.692Z,7.50
2018-01-23T23:18:59.774Z,7.50
2018-01-23T23:21:26.269Z,7.50
2018-01-23T23:23:53.540Z,7.60
2018-01-23T23:26:21.536Z,7.60
2018-01-23T23:28:49.085Z,7.60
2018-01-23T23:31:15.383Z,7.70
2018-01-23T23:33:44.117Z,7.70
2018-01-23T23:36:10.688Z,7.70
2018-01-23T23:38:36.970Z,7.70
2018-01-23T23:41:03.346Z,7.70
2018-01-23T23:43:29.842Z,7.70
2018-01-23T23:45:56.214Z,7.80
2018-01-23T23:48:22.567Z,7.80
2018-01-23T23:50:49.633Z,7.90
2018-01-23T23:53:15.993Z,7.90
2018-01-23T23:55:42.324Z,7.90
2018-01-23T23:58:09.704Z,7.90
